Impacts TAF Board
For situational awareness. Not to be used for flight planning purposes.
IDs:

KUTS - Huntsville Muni, TX, US

Issued at 1345 UTC 13 Dec 2019
Updated at 1349 UTC 13 Dec 2019
Potential Impact None Slight Moderate High
Time1253Z 13/14Z 13/15Z 13/16Z 13/17Z 13/18Z 13/19Z 13/20Z 13/21Z 13/22Z 13/23Z 14/00Z 14/01Z 14/02Z>>
Type OBS PRVL PRVL PRVL PRVL PRVL PRVL PRVL PRVL PRVL PRVL PRVL PRVL PRVL
VIS 10 >6 >6 >6 >6 >6 >6 >6 >6 >6 >6 >6 >6 >6
CIG -- -- -- -- -- -- -- -- -- -- -- -- -- --
Cover FEW SCT SCT SCT SCT SKC SKC SKC SKC SKC SKC SKC SKC SKC
FltCat VFR VFR VFR VFR VFR VFR VFR VFR VFR VFR VFR VFR VFR VFR
WX -- -- -- -- -- -- -- -- -- -- -- -- MIFG MIFG
WDir VRB VRB 240 240 240 250 250 250 250 250 250 250 300 300
WSpd 0 0 10 10 10 12 12 12 12 12 12 12 3 3
WGst -- -- -- -- -- -- -- -- -- -- -- -- -- --
Raw TAF
KUTS 131345Z 1314/1412 00000KT P6SM SCT030
  FM131500 24010KT P6SM SCT020 SCT040
  FM131800 25012KT P6SM SKC
  FM140100 30003KT P6SM MIFG SKC


Raw METAR
KUTS 131253Z AUTO 00000KT 10SM FEW029 11/08 A2997 RMK AO2 SLP148 T01060083
KUTS 131242Z AUTO 00000KT 10SM SCT029 11/08 A2998 RMK AO2 T01060083
KUTS 131153Z AUTO 00000KT 10SM BKN018 OVC028 11/08 A2997 RMK AO2 SLP148 T01110083 10117 20094 56013 $
KUTS 131130Z AUTO 00000KT 10SM SCT018 BKN027 OVC032 11/08 A2998 RMK AO2 T01110083 $
KUTS 131053Z AUTO 00000KT 10SM BKN034 11/08 A2997 RMK AO2 SLP148 T01110083 $

METAR Board
Radar Display
Forecast Discussion
For situational awareness. Not to be used for flight planning purposes.